sensor_id;sensor_type;location;lat;lon;timestamp;temperature;humidity
35277;DHT22;21401;50.878;8.050;2022-12-29T00:01:23;10.10;99.90
35277;DHT22;21401;50.878;8.050;2022-12-29T00:03:54;10.00;99.90
35277;DHT22;21401;50.878;8.050;2022-12-29T00:06:26;9.90;99.90
35277;DHT22;21401;50.878;8.050;2022-12-29T00:08:51;10.00;99.90
35277;DHT22;21401;50.878;8.050;2022-12-29T00:11:39;10.00;99.90
35277;DHT22;21401;50.878;8.050;2022-12-29T00:14:13;10.00;99.90
35277;DHT22;21401;50.878;8.050;2022-12-29T00:16:58;10.00;99.90
35277;DHT22;21401;50.878;8.050;2022-12-29T00:19:29;10.00;99.90
35277;DHT22;21401;50.878;8.050;2022-12-29T00:22:17;10.00;99.90
35277;DHT22;21401;50.878;8.050;2022-12-29T00:25:01;10.10;99.90
35277;DHT22;21401;50.878;8.050;2022-12-29T00:27:45;10.20;99.90
35277;DHT22;21401;50.878;8.050;2022-12-29T00:30:39;10.20;99.90
35277;DHT22;21401;50.878;8.050;2022-12-29T00:33:28;10.10;99.90
35277;DHT22;21401;50.878;8.050;2022-12-29T00:36:36;10.20;99.90
35277;DHT22;21401;50.878;8.050;2022-12-29T00:39:09;10.10;99.90
35277;DHT22;21401;50.878;8.050;2022-12-29T00:42:18;10.30;99.90
35277;DHT22;21401;50.878;8.050;2022-12-29T00:45:09;10.30;99.90
35277;DHT22;21401;50.878;8.050;2022-12-29T00:47:35;10.20;99.90
35277;DHT22;21401;50.878;8.050;2022-12-29T00:50:00;10.20;99.90
35277;DHT22;21401;50.878;8.050;2022-12-29T00:52:26;10.20;99.90
35277;DHT22;21401;50.878;8.050;2022-12-29T00:54:51;10.20;99.90
35277;DHT22;21401;50.878;8.050;2022-12-29T00:57:18;10.30;99.90
35277;DHT22;21401;50.878;8.050;2022-12-29T00:59:43;10.10;99.90
35277;DHT22;21401;50.878;8.050;2022-12-29T01:02:11;10.10;99.90
35277;DHT22;21401;50.878;8.050;2022-12-29T01:05:06;10.20;99.90
35277;DHT22;21401;50.878;8.050;2022-12-29T01:07:32;10.20;99.90
35277;DHT22;21401;50.878;8.050;2022-12-29T01:10:02;10.20;99.90
35277;DHT22;21401;50.878;8.050;2022-12-29T01:12:37;10.20;99.90
35277;DHT22;21401;50.878;8.050;2022-12-29T01:15:12;10.20;99.90
35277;DHT22;21401;50.878;8.050;2022-12-29T01:17:55;10.20;99.90
35277;DHT22;21401;50.878;8.050;2022-12-29T01:20:21;10.30;99.90
35277;DHT22;21401;50.878;8.050;2022-12-29T01:22:46;10.20;99.90
35277;DHT22;21401;50.878;8.050;2022-12-29T01:25:12;10.30;99.90
35277;DHT22;21401;50.878;8.050;2022-12-29T01:27:48;10.30;99.90
35277;DHT22;21401;50.878;8.050;2022-12-29T01:30:19;10.30;99.90
35277;DHT22;21401;50.878;8.050;2022-12-29T01:32:45;10.30;99.90
35277;DHT22;21401;50.878;8.050;2022-12-29T01:35:16;10.20;99.90
35277;DHT22;21401;50.878;8.050;2022-12-29T01:37:58;10.30;99.90
35277;DHT22;21401;50.878;8.050;2022-12-29T01:40:23;10.30;99.90
35277;DHT22;21401;50.878;8.050;2022-12-29T01:42:49;10.30;99.90
35277;DHT22;21401;50.878;8.050;2022-12-29T01:45:24;10.30;99.90
35277;DHT22;21401;50.878;8.050;2022-12-29T01:47:58;10.40;99.90
35277;DHT22;21401;50.878;8.050;2022-12-29T01:50:39;10.40;99.90
35277;DHT22;21401;50.878;8.050;2022-12-29T01:56:28;10.40;99.90
35277;DHT22;21401;50.878;8.050;2022-12-29T01:59:17;10.40;99.90
35277;DHT22;21401;50.878;8.050;2022-12-29T02:02:12;10.50;99.90
35277;DHT22;21401;50.878;8.050;2022-12-29T02:04:41;10.40;99.90
35277;DHT22;21401;50.878;8.050;2022-12-29T02:08:26;10.50;99.90
35277;DHT22;21401;50.878;8.050;2022-12-29T02:11:15;10.50;99.90
35277;DHT22;21401;50.878;8.050;2022-12-29T02:13:52;10.50;99.90
35277;DHT22;21401;50.878;8.050;2022-12-29T02:29:30;10.30;99.90
35277;DHT22;21401;50.878;8.050;2022-12-29T02:36:48;10.30;99.90
35277;DHT22;21401;50.878;8.050;2022-12-29T02:50:42;10.20;99.90
35277;DHT22;21401;50.878;8.050;2022-12-29T02:53:14;10.20;99.90
35277;DHT22;21401;50.878;8.050;2022-12-29T02:56:00;10.10;99.90
35277;DHT22;21401;50.878;8.050;2022-12-29T02:58:26;10.10;99.90
35277;DHT22;21401;50.878;8.050;2022-12-29T03:10:28;9.90;99.90
35277;DHT22;21401;50.878;8.050;2022-12-29T03:16:22;9.70;99.90
35277;DHT22;21401;50.878;8.050;2022-12-29T03:18:51;9.80;99.90
35277;DHT22;21401;50.878;8.050;2022-12-29T03:21:39;9.70;99.90
35277;DHT22;21401;50.878;8.050;2022-12-29T03:24:29;9.70;99.90
35277;DHT22;21401;50.878;8.050;2022-12-29T03:26:59;9.70;99.90
35277;DHT22;21401;50.878;8.050;2022-12-29T03:29:29;9.70;99.90
35277;DHT22;21401;50.878;8.050;2022-12-29T03:31:57;9.70;99.90
35277;DHT22;21401;50.878;8.050;2022-12-29T03:34:26;9.70;99.90
35277;DHT22;21401;50.878;8.050;2022-12-29T03:37:02;9.80;99.90
35277;DHT22;21401;50.878;8.050;2022-12-29T03:39:30;9.80;99.90
35277;DHT22;21401;50.878;8.050;2022-12-29T03:42:04;9.90;99.90
35277;DHT22;21401;50.878;8.050;2022-12-29T03:44:35;9.90;99.90
35277;DHT22;21401;50.878;8.050;2022-12-29T03:47:12;10.00;99.90
35277;DHT22;21401;50.878;8.050;2022-12-29T03:49:38;10.00;99.90
35277;DHT22;21401;50.878;8.050;2022-12-29T03:52:04;10.00;99.90
35277;DHT22;21401;50.878;8.050;2022-12-29T03:54:35;10.00;99.90
35277;DHT22;21401;50.878;8.050;2022-12-29T03:57:03;10.00;99.90
35277;DHT22;21401;50.878;8.050;2022-12-29T03:59:31;10.00;99.90
35277;DHT22;21401;50.878;8.050;2022-12-29T04:02:05;9.90;99.90
35277;DHT22;21401;50.878;8.050;2022-12-29T04:04:33;9.90;99.90
35277;DHT22;21401;50.878;8.050;2022-12-29T04:07:03;9.80;99.90
35277;DHT22;21401;50.878;8.050;2022-12-29T04:09:29;9.80;99.90
35277;DHT22;21401;50.878;8.050;2022-12-29T04:11:56;9.90;99.90
35277;DHT22;21401;50.878;8.050;2022-12-29T04:14:30;9.80;99.90
35277;DHT22;21401;50.878;8.050;2022-12-29T04:16:58;9.80;99.90
35277;DHT22;21401;50.878;8.050;2022-12-29T04:19:24;9.90;99.90
35277;DHT22;21401;50.878;8.050;2022-12-29T04:21:49;9.80;99.90
35277;DHT22;21401;50.878;8.050;2022-12-29T04:24:15;9.80;99.90
35277;DHT22;21401;50.878;8.050;2022-12-29T04:26:41;9.80;99.90
35277;DHT22;21401;50.878;8.050;2022-12-29T04:29:07;9.80;99.90
35277;DHT22;21401;50.878;8.050;2022-12-29T04:31:37;9.80;99.90
35277;DHT22;21401;50.878;8.050;2022-12-29T04:34:14;9.90;99.90
35277;DHT22;21401;50.878;8.050;2022-12-29T04:36:40;9.90;99.90
35277;DHT22;21401;50.878;8.050;2022-12-29T04:39:06;10.00;99.90
35277;DHT22;21401;50.878;8.050;2022-12-29T04:41:34;10.00;99.90
35277;DHT22;21401;50.878;8.050;2022-12-29T04:43:59;10.00;99.90
35277;DHT22;21401;50.878;8.050;2022-12-29T04:46:27;10.00;99.90
35277;DHT22;21401;50.878;8.050;2022-12-29T04:48:55;9.90;99.90
35277;DHT22;21401;50.878;8.050;2022-12-29T04:51:27;10.00;99.90
35277;DHT22;21401;50.878;8.050;2022-12-29T04:53:52;10.00;99.90
35277;DHT22;21401;50.878;8.050;2022-12-29T04:56:25;10.00;99.90
35277;DHT22;21401;50.878;8.050;2022-12-29T04:58:51;10.00;99.90
35277;DHT22;21401;50.878;8.050;2022-12-29T05:01:16;10.00;99.90
35277;DHT22;21401;50.878;8.050;2022-12-29T05:03:50;10.00;99.90
35277;DHT22;21401;50.878;8.050;2022-12-29T05:06:19;10.00;99.90
35277;DHT22;21401;50.878;8.050;2022-12-29T05:08:45;10.10;99.90
35277;DHT22;21401;50.878;8.050;2022-12-29T05:11:15;10.10;99.90
35277;DHT22;21401;50.878;8.050;2022-12-29T05:13:48;10.10;99.90
35277;DHT22;21401;50.878;8.050;2022-12-29T05:16:15;10.10;99.90
35277;DHT22;21401;50.878;8.050;2022-12-29T05:18:41;10.10;99.90
35277;DHT22;21401;50.878;8.050;2022-12-29T05:21:10;10.10;99.90
35277;DHT22;21401;50.878;8.050;2022-12-29T05:23:35;10.00;99.90
35277;DHT22;21401;50.878;8.050;2022-12-29T05:26:11;10.10;99.90
35277;DHT22;21401;50.878;8.050;2022-12-29T05:28:36;10.10;99.90
35277;DHT22;21401;50.878;8.050;2022-12-29T05:31:05;10.00;99.90
35277;DHT22;21401;50.878;8.050;2022-12-29T05:33:35;10.10;99.90
35277;DHT22;21401;50.878;8.050;2022-12-29T05:36:08;10.00;99.90
35277;DHT22;21401;50.878;8.050;2022-12-29T05:38:34;10.00;99.90
35277;DHT22;21401;50.878;8.050;2022-12-29T05:41:00;9.80;99.90
35277;DHT22;21401;50.878;8.050;2022-12-29T05:43:25;9.70;99.90
35277;DHT22;21401;50.878;8.050;2022-12-29T05:45:52;9.60;99.90
35277;DHT22;21401;50.878;8.050;2022-12-29T05:48:20;9.60;99.90
35277;DHT22;21401;50.878;8.050;2022-12-29T05:50:53;9.50;99.90
35277;DHT22;21401;50.878;8.050;2022-12-29T05:53:21;9.50;99.90
35277;DHT22;21401;50.878;8.050;2022-12-29T05:55:47;9.50;99.90
35277;DHT22;21401;50.878;8.050;2022-12-29T05:58:20;9.50;99.90
35277;DHT22;21401;50.878;8.050;2022-12-29T06:00:53;9.50;99.90
35277;DHT22;21401;50.878;8.050;2022-12-29T06:03:24;9.60;99.90
35277;DHT22;21401;50.878;8.050;2022-12-29T07:24:01;9.70;99.90
35277;DHT22;21401;50.878;8.050;2022-12-29T07:41:34;9.70;99.90
35277;DHT22;21401;50.878;8.050;2022-12-29T07:51:05;9.80;99.90
35277;DHT22;21401;50.878;8.050;2022-12-29T12:33:39;10.20;99.90
35277;DHT22;21401;50.878;8.050;2022-12-29T12:37:10;10.20;99.90
35277;DHT22;21401;50.878;8.050;2022-12-29T14:17:21;9.60;99.90
35277;DHT22;21401;50.878;8.050;2022-12-29T14:19:51;10.00;99.90
